Weather observations for the past three days for
New Lisbon Mauston Airport
Metric (Imperial)
Date Time (cdt) Wind (kph) Vis. (km) Weather Sky Cond. Temperature (ºC) Relative Humidity Wind Chill (°C) Heat Index (°C) Pressure Precipitation (cm)
Air Dwpt 6 hour altimeter (cm) sea level (mb) 1 hr 3 hr 6 hr
Max. Min.
02 17:15 W 15 G 28 16.09 Partly Cloudy SCT080 15.7 -11.4 14% 76.02 0.0
02 16:55 W 19 G 28 16.09 Partly Cloudy SCT080 16.1 -10.8 15% 76.05 0.0
02 16:35 W 20 G 30 16.09 Partly Cloudy SCT080 15.9 -11.1 15% 76.07 0.0
02 16:15 W 20 G 35 16.09 Partly Cloudy SCT080 15.4 -10.7 16% 76.07 0.0
02 15:55 W 19 G 31 16.09 Partly Cloudy SCT080 15.4 -10.9 15% 76.07 0.0
02 15:35 W 22 G 41 16.09 Mostly Cloudy BKN080 14.9 -10.3 17% 76.1 0.0
02 15:15 W 19 G 30 16.09 Partly Cloudy SCT080 15.7 -9.8 16% 76.12 0.0
02 14:35 NW 20 G 39 16.09 Mostly Cloudy BKN080 14.6 -9.9 18% 76.17 0.0
02 14:15 NW 19 G 30 16.09 Mostly Cloudy BKN080 15.3 -9 18% 76.2 0.0
02 13:55 NW 17 G 31 16.09 Mostly Cloudy BKN080 14.2 -10.9 17% 76.2 0.0
02 13:35 W 19 G 26 16.09 Mostly Cloudy BKN080 13.6 -10.4 18% 76.23 0.0
02 13:15 W 19 G 37 16.09 Mostly Cloudy BKN080 14 -9.4 19% 76.25 0.0
02 12:55 W 20 G 31 16.09 Mostly Cloudy BKN080 13.5 -9.9 14.3 5.6 19% 76.25 0.0
02 12:35 NW 15 G 35 16.09 Mostly Cloudy BKN080 14.2 -9.8 18% 76.28 0.0
02 12:15 W 22 G 30 16.09 Mostly Cloudy BKN080 14.2 -9.2 19% 76.28 0.0
02 11:55 W 17 G 26 16.09 Mostly Cloudy BKN080 13.3 -10.2 19% 76.3 0.0
02 11:35 W 19 G 28 16.09 Partly Cloudy SCT070 12.4 -9.9 20% 76.3 0.0
02 11:15 NW 15 G 28 16.09 Fair CLR 12.7 -8.7 22% 76.33 0.0
02 10:55 W 13 G 31 16.09 Partly Cloudy SCT085 12.2 -8.8 22% 76.35 0.0
02 10:35 W 19 G 33 16.09 Mostly Cloudy BKN085 11.9 -7.7 25% 76.35 0.0
02 10:15 W 13 16.09 Mostly Cloudy BKN085 11.2 -6.9 28% 76.35 0.0
02 09:55 NW 17 16.09 Partly Cloudy SCT085 10.8 -7.3 28% 76.38 0.0
02 09:35 W 9 16.09 Fair CLR 10.5 -7.2 28% 76.38 0.0
02 09:15 SW 11 16.09 Fair CLR 9.4 -6.4 32% 8 76.4 0.0
02 08:55 W 15 16.09 Fair CLR 9 -6.8 32% 7 76.4 0.0
02 08:35 W 13 16.09 Partly Cloudy SCT090 8.5 -7.7 31% 7 76.4 0.0
02 08:15 W 9 16.09 Mostly Cloudy BKN090 8.1 -7.9 32% 7 76.4 0.0
02 07:55 W 13 16.09 Mostly Cloudy BKN090 7.4 -7.7 34% 5 76.43 0.0
02 07:35 W 9 16.09 Overcast OVC090 6.6 -6.9 38% 5 76.43 0.0
02 07:15 Calm 16.09 Overcast OVC090 6 -7 39% 76.43 0.0
02 06:55 SW 7 16.09 Overcast OVC090 5.6 -7 5.6 -0.4 40% 4 76.43 0.0
02 06:35 SW 6 16.09 Overcast OVC090 5.5 -6.9 41% 76.4 0.0
02 06:15 SW 9 16.09 Overcast OVC090 5.2 -7.1 41% 3 76.4 0.0
02 05:55 W 9 16.09 Overcast OVC090 5 -6.4 44% 3 76.43 0.0
02 05:35 W 11 16.09 Overcast SCT075 OVC090 4.1 -4.6 54% 2 76.4 0.0
02 05:15 Calm 16.09 Overcast OVC090 1.9 0.3 89% 76.43 0.0
02 04:55 Calm 16.09 Overcast SCT075 OVC090 1.7 0.1 89% 76.43 0.0
02 04:35 Calm 16.09 Overcast OVC090 1.1 -0.1 92% 76.4 0.0
02 04:15 Calm 16.09 Overcast OVC090 0.9 -0.3 92% 76.4 0.0
02 03:55 Calm 16.09 Overcast OVC090 0.6 -0.6 92% 76.4 0.0
02 03:35 Calm 16.09 Overcast OVC090 0.6 -0.6 92% 76.4 0.0
02 03:15 Calm 16.09 Overcast OVC090 0.7 -0.5 92% 76.43 0.0
02 02:55 Calm 16.09 Overcast OVC090 0.6 -0.6 92% 76.43 0.0
02 02:35 Calm 16.09 Overcast OVC090 0.5 -0.7 92% 76.43 0.0
02 02:15 Calm 16.09 Overcast OVC090 0.5 -0.8 91% 76.43 0.0
02 01:55 Calm 16.09 Overcast OVC090 0.1 -1.1 92% 76.43 0.0
02 01:35 Calm 16.09 Overcast OVC090 0 -1.4 90% 76.43 0.0
02 01:15 Calm 16.09 Overcast OVC090 -0.1 -1.6 90% 76.45 0.0
02 00:55 Calm 16.09 Partly Cloudy SCT090 -0.5 -2 8.6 -0.7 90% 76.43 0.0
02 00:35 Calm 16.09 Fair CLR -0.5 -2 90% 76.43 0.0
02 00:15 Calm 16.09 Fair CLR 0 -1.5 90% 76.43 0.0
01 23:55 Calm 16.09 Fair CLR 0 -1.3 91% 76.43 0.0
01 23:35 Calm 16.09 Fair CLR 0.5 -0.8 91% 76.4 0.0
01 23:15 Calm 16.09 Fair CLR 0.9 -0.4 91% 76.4 0.0
01 22:55 Calm 16.09 Partly Cloudy SCT070 1.5 -0.3 88% 76.4 0.0
01 22:35 Calm 16.09 Mostly Cloudy BKN080 2.1 0.4 89% 76.4 0.0
01 22:15 Calm 16.09 Mostly Cloudy BKN080 2.1 -0.2 85% 76.4 0.0
01 21:55 Calm 16.09 Fair CLR 2.3 -0.6 81% 76.4 0.0
01 21:35 Calm 16.09 Partly Cloudy SCT090 3 -1.4 73% 76.4 0.0
01 21:15 Calm 16.09 Mostly Cloudy BKN090 3.6 -1.4 70% 76.4 0.0
01 20:30 Calm 16.09 Mostly Cloudy BKN090 5.7 -1.9 58% 76.38 0.0
01 20:15 Calm 16.09 Overcast OVC080 6.9 -6.8 37% 76.35 0.0
01 19:55 Calm 16.09 Overcast OVC080 7.7 -7.3 34% 76.35 0.0
01 19:35 Calm 16.09 Mostly Cloudy BKN080 8.1 -9.8 27% 76.33 0.0
01 19:15 NE 7 16.09 Mostly Cloudy SCT070 BKN080 8.2 -10 27% 7 76.33 0.0
01 18:55 NE 9 16.09 Overcast SCT070 OVC080 8.6 -10.1 10.7 8.2 26% 7 76.33 0.0
01 18:35 N 7 16.09 Mostly Cloudy BKN080 9.1 -11.3 23% 8 76.33 0.0
01 18:15 N 11 16.09 Overcast OVC080 9.3 -10.8 23% 8 76.33 0.0
01 17:55 N 15 16.09 Mostly Cloudy BKN080 9.2 -10.7 24% 7 76.33 0.0
01 17:35 NW 7 16.09 Mostly Cloudy BKN080 9.5 -11.4 22% 9 76.3 0.0
01 17:15 N 13 16.09 Overcast OVC070 10 -11.2 21% 8 76.3 0.0
01 16:55 N 13 16.09 Overcast BKN070 OVC080 10.2 -10.9 22% 76.28 0.0
01 16:35 N 11 16.09 Overcast OVC080 9.6 -11.3 22% 8 76.28 0.0
01 16:15 NW 20 G 28 16.09 Mostly Cloudy BKN075 BKN085 10.1 -10 23% 76.28 0.0
01 15:55 NW 17 16.09 Mostly Cloudy BKN075 10.7 -10.4 22% 76.28 0.0
01 15:35 NW 17 16.09 Mostly Cloudy BKN065 BKN080 9.7 -10.8 23% 8 76.28 0.0
01 15:15 NE 11 16.09 Mostly Cloudy BKN065 BKN080 10.4 -10.4 22% 76.3 0.0
01 14:55 NW 13 16.09 Partly Cloudy SCT065 10.1 -10.6 22% 76.3 0.0
01 14:35 N 13 16.09 Mostly Cloudy SCT070 BKN075 10.3 -10.3 23% 76.28 0.0
01 14:15 NW 15 16.09 Partly Cloudy SCT070 9.5 -9.5 25% 8 76.3 0.0
01 13:55 NW 11 G 30 16.09 Partly Cloudy SCT070 9.1 -11.1 23% 8 76.3 0.0
01 13:35 N 19 G 30 16.09 Partly Cloudy SCT060 9.3 -10.2 24% 7 76.28 0.0
01 13:15 NW 17 G 26 16.09 Mostly Cloudy BKN060 8.6 -9.7 27% 6 76.28 0.0
01 12:55 N 11 G 17 16.09 Mostly Cloudy BKN060 8.2 -11 9.2 1.8 25% 7 76.28 0.0
01 12:35 NW 13 16.09 Mostly Cloudy BKN060 8.5 -9.4 27% 7 76.28 0.0
01 12:15 N 15 16.09 Mostly Cloudy BKN060 8.5 -10.7 25% 6 76.28 0.0
01 11:55 NW 11 16.09 Mostly Cloudy BKN060 8.1 -9.7 27% 6 76.28 0.0
01 11:35 W 9 16.09 Overcast OVC060 8.1 -7.7 32% 7 76.3 0.0
01 11:15 N 13 16.09 Overcast OVC060 7.6 -8.3 32% 6 76.3 0.0
01 10:55 NW 6 16.09 Overcast BKN050 OVC075 7.3 -8.1 33% 76.3 0.0
01 10:35 N 9 16.09 Mostly Cloudy SCT048 BKN060 BKN075 7.3 -7.1 35% 6 76.3 0.0
01 10:15 N 9 16.09 Mostly Cloudy SCT039 SCT045 BKN060 7.1 -7.2 36% 6 76.3 0.0
01 09:55 NW 9 16.09 Overcast SCT039 OVC060 6.7 -5.1 43% 5 76.3 0.0
01 09:35 N 7 16.09 Overcast SCT035 OVC060 6.1 -5.6 43% 5 76.3 0.0
01 09:15 N 6 16.09 Overcast OVC060 5.7 -4.3 49% 76.3 0.0
01 08:55 N 6 16.09 Overcast OVC060 5.3 -2.9 56% 76.3 0.0
01 08:35 W 11 16.09 Overcast OVC050 4.7 -0.5 69% 2 76.3 0.0
01 08:15 NW 7 16.09 Overcast OVC050 3.8 1.3 84% 2 76.3 0.0
01 07:55 W 6 16.09 Overcast BKN050 OVC080 3.4 1.9 90% 76.3 0.0
01 07:35 NW 7 16.09 Overcast SCT050 SCT060 OVC080 3 1.5 90% 1 76.28 0.0
01 07:15 NW 6 16.09 Overcast SCT050 SCT065 OVC080 2.2 0.7 90% 76.28 0.0
01 06:55 Calm 16.09 Overcast OVC080 1.8 0.2 1.9 -0.5 89% 76.28 0.0
01 06:35 NW 6 16.09 Overcast OVC080 1.7 0.1 89% 76.25 0.0
01 06:15 Calm 16.09 Overcast SCT060 OVC080 1.4 0 91% 76.25 0.0
01 05:55 NW 6 16.09 Overcast SCT060 OVC080 1.2 0 92% 76.25 0.0
01 05:35 Calm 16.09 Overcast SCT060 OVC080 1 -0.1 92% 76.25 0.0
01 05:15 NW 6 16.09 Overcast OVC060 0.7 -0.5 92% 76.25 0.0
01 04:55 NW 6 16.09 Overcast BKN060 OVC070 0.5 -0.7 92% 76.25 0.0
01 04:35 NW 6 16.09 Overcast OVC070 0.2 -1 92% 76.25 0.0
01 04:15 Calm 16.09 Overcast OVC070 0.1 -1.1 92% 76.23 0.0
01 03:55 W 6 16.09 Mostly Cloudy BKN070 0 -1.5 90% 76.23 0.0
01 03:30 W 6 16.09 Partly Cloudy SCT070 0 -1.4 90% 76.23 0.0
01 03:15 W 6 16.09 Partly Cloudy SCT070 -0.4 -1.9 90% 76.2 0.0
01 02:55 Calm 16.09 Partly Cloudy SCT070 -0.1 -1.6 90% 76.2 0.0
01 02:35 W 6 16.09 Partly Cloudy SCT070 -0.1 -1.6 90% 76.23 0.0
01 02:15 W 6 16.09 Fair CLR 0 -1.5 90% 76.23 0.0
01 01:55 W 6 16.09 Fair CLR 0.1 -1.1 92% 76.23 0.0
01 01:35 Calm 16.09 Fair CLR 0.5 -0.8 91% 76.23 0.0
01 01:15 W 6 16.09 Fair CLR 0.6 -0.5 92% 76.23 0.0
01 00:55 Calm 16.09 Fair CLR 1.1 -0.1 9.5 1.1 92% 76.23 0.0
01 00:35 Calm 16.09 Fair CLR 2 -2 75% 76.23 0.0
01 00:15 Calm 16.09 Partly Cloudy SCT065 2.4 -1.9 74% 76.23 0.0
30 23:55 NW 6 16.09 Partly Cloudy SCT065 2.9 -1.9 71% 76.2 0.0
30 23:35 Calm 16.09 Partly Cloudy SCT065 4.7 -4.7 51% 76.2 0.0
30 23:15 N 6 16.09 Overcast OVC065 4.9 -5 49% 76.2 0.0
30 22:55 NW 6 16.09 Mostly Cloudy BKN065 5.3 -5.7 45% 76.23 0.0
30 22:35 NW 6 16.09 Mostly Cloudy SCT075 BKN080 5.6 -5.8 44% 76.23 0.0
30 22:15 NW 6 16.09 Partly Cloudy SCT065 SCT085 6.1 -6.2 41% 76.23 0.0
30 21:55 N 7 16.09 Mostly Cloudy SCT060 BKN085 6.7 -6.8 38% 6 76.23 0.0
30 21:35 N 13 16.09 Overcast OVC060 7.2 -7.1 36% 5 76.2 0.0
30 21:15 N 9 16.09 Overcast OVC060 7.7 -7.4 34% 6 76.2 0.0
30 20:55 N 15 16.09 Overcast OVC060 8.1 -6.7 35% 6 76.15 0.0
30 20:35 N 9 16.09 Overcast OVC060 8.5 -6.6 34% 7 76.15 0.0
30 20:15 NW 9 16.09 Overcast OVC060 8.8 -5.4 36% 8 76.12 0.0
30 19:55 N 7 16.09 Overcast OVC060 9 -5.5 36% 8 76.1 0.0
30 19:35 N 6 16.09 Overcast BKN060 OVC070 9.1 -4.2 39% 76.1 0.0
30 19:15 NE 6 16.09 Overcast SCT050 OVC065 9.2 -4.6 38% 76.07 0.0
30 18:55 Calm 16.09 Overcast BKN065 OVC070 9.5 -5.5 12.6 9.5 35% 76.07 0.0
30 18:35 N 6 16.09 Overcast OVC065 9.6 -5.6 34% 76.07 0.0
30 18:15 N 7 16.09 Overcast OVC060 10.1 -5.9 32% 76.05 0.0
30 17:55 N 9 16.09 Overcast BKN060 OVC070 10.5 -6.3 30% 76.05 0.0
30 17:35 NW 11 16.09 Overcast SCT060 BKN070 OVC090 10.6 -6.4 30% 76.05 0.0
30 17:15 N 9 16.09 Overcast SCT070 SCT075 OVC090 10.6 -6.6 30% 76.05 0.0
30 16:55 N 11 16.09 Overcast BKN065 OVC070 10.5 -5.6 32% 76.05 0.0
30 16:35 N 7 16.09 Overcast BKN060 OVC070 10.4 -5 34% 76.05 0.0
30 16:15 NE 9 16.09 Overcast OVC060 11.3 -4.9 32% 76.05 0.0
30 15:55 E 7 16.09 Overcast SCT050 BKN070 OVC080 11 -4.6 33% 76.07 0.0
30 15:35 NE 11 16.09 Overcast BKN060 OVC070 10.6 -5.4 32% 76.07 0.0
30 15:15 NE 7 16.09 Overcast OVC060 10.9 -5.1 32% 76.07 0.0
30 14:55 N 9 16.09 Overcast BKN060 OVC070 10.5 -4.8 34% 76.1 0.0
30 14:35 NW 11 16.09 Overcast OVC060 10.7 -5.2 33% 76.07 0.0
30 14:15 Calm 16.09 Overcast SCT060 OVC070 11.8 -4.6 32% 76.1 0.0
30 13:55 Calm 16.09 Overcast SCT070 OVC075 11.5 -4.8 32% 76.1 0.0
30 13:30 Calm 16.09 Overcast OVC055 10.1 -6 32% 76.12 0.0
30 13:15 Calm 16.09 Overcast OVC055 10 -6.3 31% 76.15 0.0
30 12:55 E 6 16.09 Overcast OVC055 10 -6.1 10.4 0 32% 76.15 0.0
30 12:35 E 7 16.09 Mostly Cloudy SCT055 SCT070 BKN090 10.4 -6.1 31% 76.15 0.0
30 12:15 SW 9 16.09 Partly Cloudy SCT090 10.3 -5.2 33% 76.17 0.0
30 11:55 S 6 16.09 Partly Cloudy SCT090 10.1 -4.6 36% 76.17 0.0
30 11:35 SE 7 16.09 Partly Cloudy SCT090 9.5 -5 36% 9 76.2 0.0
30 11:15 SE 9 16.09 Overcast SCT060 OVC090 8.8 -4.9 38% 8 76.2 0.0
30 10:55 SE 6 16.09 Overcast BKN060 OVC090 8 -5.2 39% 76.23 0.0
30 10:35 S 9 16.09 Mostly Cloudy BKN090 8.1 -4.8 40% 7 76.23 0.0
30 10:15 SE 7 16.09 Overcast BKN060 OVC090 8.2 -5 39% 7 76.23 0.0
30 09:55 Calm 16.09 Overcast BKN060 OVC090 7.3 -5 42% 76.25 0.0
30 09:35 SE 6 16.09 Overcast SCT060 OVC090 6.9 -5 43% 76.23 0.0
30 09:15 E 6 16.09 Overcast SCT060 OVC090 6.5 -1.5 57% 76.25 0.0
30 08:55 E 6 16.09 Overcast SCT060 OVC090 5.7 -0.2 66% 76.25 0.0
30 08:35 SE 7 16.09 Overcast OVC090 5.2 3.4 88% 4 76.25 0.0
30 08:15 SE 7 16.09 Overcast OVC090 4.5 3 90% 3 76.23 0.0
30 07:55 SE 6 16.09 Mostly Cloudy BKN100 BKN120 4 2.5 90% 76.28 0.0
30 07:35 Calm 16.09 Mostly Cloudy BKN110 2.5 1 90% 76.25 0.0
30 07:15 Calm 16.09 Mostly Cloudy BKN110 1.1 -0.1 92% 76.28 0.0
30 06:55 Calm 16.09 Partly Cloudy SCT110 -0.1 -1.6 3.2 -1.5 90% 76.28 0.0
30 06:35 Calm 16.09 Fair CLR -1 -2.5 90% 76.25 0.0
30 06:15 Calm 16.09 Fair CLR -1.5 -3 90% 76.25 0.0
30 05:55 Calm 16.09 Fair CLR -1 -2.5 90% 76.25 0.0
30 05:35 Calm 16.09 Fair CLR -0.9 -2.4 90% 76.28 0.0
30 05:15 Calm 16.09 Fair CLR -0.5 -2 90% 76.28 0.0
30 04:55 Calm 16.09 Fair CLR -0.5 -2 90% 76.25 0.0
30 04:35 Calm 16.09 Fair CLR -0.7 -2.2 90% 76.25 0.0
30 04:15 Calm 16.09 Fair CLR -0.1 -1.6 90% 76.28 0.0
30 03:55 Calm 16.09 Fair CLR -0.5 -2 90% 76.25 0.0
30 03:35 Calm 16.09 Fair CLR -0.3 -1.8 90% 76.25 0.0
30 03:15 Calm 16.09 Fair CLR 0 -1.5 90% 76.23 0.0
30 02:55 Calm 16.09 Fair CLR 0.3 -1 91% 76.23 0.0
30 02:35 Calm 16.09 Fair CLR 0.5 -0.7 92% 76.25 0.0
30 02:15 Calm 16.09 Fair CLR 0.8 -0.5 91% 76.25 0.0
30 01:55 Calm 16.09 Fair CLR 1.6 0.1 90% 76.25 0.0
30 01:35 Calm 16.09 Partly Cloudy SCT075 1.9 0 87% 76.28 0.0
30 01:15 Calm 16.09 Mostly Cloudy BKN075 2.3 0.8 90% 76.28 0.0
30 00:55 Calm 16.09 Mostly Cloudy BKN085 3.1 -2.3 11.4 2.5 68% 76.28 0.0
30 00:35 Calm 16.09 Partly Cloudy SCT085 2.6 -2.3 70% 76.28 0.0
30 00:15 Calm 16.09 Mostly Cloudy BKN085 3.1 -3.8 61% 76.25 0.0
29 23:55 Calm 16.09 Fair CLR 3.1 -3.9 60% 76.25 0.0
29 23:35 Calm 16.09 Fair CLR 2.9 -1.6 73% 76.25 0.0
29 23:15 Calm 16.09 Partly Cloudy SCT095 3.7 -2.5 64% 76.25 0.0
29 22:55 Calm 16.09 Partly Cloudy SCT095 4.1 -4.3 55% 76.25 0.0
29 22:15 W 6 16.09 Mostly Cloudy BKN095 5.5 -4.7 48% 76.25 0.0
29 21:55 Calm 16.09 Overcast OVC095 5.2 -4.8 49% 76.25 0.0
29 21:35 W 6 16.09 Overcast OVC095 5.8 -4.4 48% 76.25 0.0
29 21:15 Calm 16.09 Mostly Cloudy BKN095 6.3 -5.7 42% 76.23 0.0
29 20:55 W 6 16.09 Fair CLR 6.5 -4.2 47% 76.23 0.0
29 20:35 NW 9 16.09 Fair CLR 7.8 -5.6 38% 6 76.2 0.0
29 20:15 NW 9 16.09 Partly Cloudy SCT100 8.4 -5.8 36% 7 76.2 0.0
29 19:55 NW 11 16.09 Partly Cloudy SCT100 9 -4.9 37% 8 76.17 0.0
29 19:35 NW 11 16.09 Partly Cloudy SCT085 9.8 -6 33% 8 76.15 0.0
29 19:15 NW 11 16.09 Partly Cloudy SCT085 10.2 -7.1 29% 76.15 0.0
29 18:55 NW 22 G 28 16.09 Mostly Cloudy SCT075 BKN085 11.5 -8.8 12.4 6.1 23% 76.15 0.0
29 18:35 NW 19 16.09 Mostly Cloudy BKN080 10.8 -7.7 27% 76.15 0.0
29 18:15 W 22 G 31 16.09 Partly Cloudy SCT080 11.1 -8.6 24% 76.15 0.0
29 17:55 NW 24 G 35 16.09 Partly Cloudy SCT070 SCT080 11.8 -9.1 22% 76.15 0.0
29 17:35 NW 26 G 33 16.09 Mostly Cloudy SCT070 BKN080 12.4 -7.2 25% 76.15 0.0
Date Time (cdt) Wind (kph) Vis. (km) Weather Sky Cond. Air Dwpt Max. Min. Relative Humidity Wind Chill (°C) Heat Index (°C) altimeter (cm) sea level (mb) 1 hr 3 hr 6 hr
6 hour
Temperature (ºC) Pressure Precipitation (cm)